createdAt,value
2019-06-26T00:01:23.365Z,20.94
2019-06-26T00:03:54.285Z,20.92
2019-06-26T00:06:25.287Z,20.88
2019-06-26T00:08:56.335Z,20.84
2019-06-26T00:11:27.251Z,20.84
2019-06-26T00:13:58.302Z,20.78
2019-06-26T00:16:29.298Z,20.76
2019-06-26T00:19:00.256Z,20.77
2019-06-26T00:21:31.221Z,20.72
2019-06-26T00:24:02.190Z,20.69
2019-06-26T00:26:33.107Z,20.63
2019-06-26T00:29:05.139Z,20.57
2019-06-26T00:31:36.058Z,20.55
2019-06-26T00:34:07.179Z,20.52
2019-06-26T00:36:38.205Z,20.49
2019-06-26T00:39:09.153Z,20.48
2019-06-26T00:41:40.135Z,20.42
2019-06-26T00:44:11.116Z,20.39
2019-06-26T00:46:42.123Z,20.39
2019-06-26T00:49:13.098Z,20.36
2019-06-26T00:51:44.014Z,20.32
2019-06-26T00:54:14.918Z,20.26
2019-06-26T00:56:45.875Z,20.25
2019-06-26T00:59:16.826Z,20.26
2019-06-26T01:01:47.825Z,20.21
2019-06-26T01:04:20.393Z,20.12
2019-06-26T01:06:51.472Z,20.10
2019-06-26T01:09:22.457Z,20.06
2019-06-26T01:11:53.540Z,20.05
2019-06-26T01:14:24.496Z,20.03
2019-06-26T01:16:55.585Z,20.00
2019-06-26T01:19:26.685Z,19.96
2019-06-26T01:21:57.836Z,19.94
2019-06-26T01:24:28.978Z,19.93
2019-06-26T01:26:59.894Z,19.93
2019-06-26T01:29:32.699Z,19.93
2019-06-26T01:32:04.018Z,19.88
2019-06-26T01:34:35.074Z,19.85
2019-06-26T01:37:08.870Z,19.81
2019-06-26T01:39:39.855Z,19.82
2019-06-26T01:42:10.960Z,19.84
2019-06-26T01:44:42.186Z,19.86
2019-06-26T01:47:13.360Z,19.89
2019-06-26T01:49:44.547Z,19.92
2019-06-26T01:52:15.540Z,19.98
2019-06-26T01:54:46.589Z,20.02
2019-06-26T01:57:17.773Z,20.02
2019-06-26T01:59:48.884Z,20.12
2019-06-26T02:02:19.795Z,20.22
2019-06-26T02:04:50.733Z,20.25
2019-06-26T02:07:21.803Z,20.37
2019-06-26T02:09:53.276Z,20.91
2019-06-26T02:12:24.433Z,21.86
2019-06-26T02:14:55.584Z,22.85
2019-06-26T02:17:26.710Z,23.85
2019-06-26T02:19:57.750Z,24.70
2019-06-26T02:22:28.894Z,25.36
2019-06-26T02:24:59.977Z,26.17
2019-06-26T02:27:31.047Z,26.59
2019-06-26T02:30:02.166Z,27.05
2019-06-26T02:32:33.259Z,27.48
2019-06-26T02:35:09.895Z,28.03
2019-06-26T02:37:38.969Z,28.63
2019-06-26T02:40:10.606Z,29.27
2019-06-26T02:42:41.716Z,29.65
2019-06-26T02:45:12.912Z,30.50
2019-06-26T02:47:43.910Z,31.03
2019-06-26T02:50:14.910Z,31.34
2019-06-26T02:52:45.988Z,31.44
2019-06-26T02:55:17.064Z,31.55
2019-06-26T02:57:48.121Z,31.77
2019-06-26T03:00:19.240Z,31.87
2019-06-26T03:02:50.163Z,32.10
2019-06-26T03:05:21.133Z,32.93
2019-06-26T03:07:53.563Z,33.63
2019-06-26T03:10:24.573Z,34.06
2019-06-26T03:12:55.489Z,34.29
2019-06-26T03:15:26.485Z,34.34
2019-06-26T03:17:57.443Z,34.78
2019-06-26T03:20:31.522Z,34.75
2019-06-26T03:23:02.527Z,34.71
2019-06-26T03:25:33.509Z,34.73
2019-06-26T03:28:04.439Z,34.56
2019-06-26T03:30:35.414Z,34.57
2019-06-26T03:33:06.409Z,35.06
2019-06-26T03:35:40.633Z,35.06
2019-06-26T03:38:10.098Z,35.46
2019-06-26T03:40:41.192Z,36.07
2019-06-26T03:43:12.110Z,36.48
2019-06-26T03:45:43.144Z,36.45
2019-06-26T03:48:14.146Z,36.23
2019-06-26T03:50:45.189Z,36.08
2019-06-26T03:53:18.660Z,36.47
2019-06-26T03:55:49.723Z,36.49
2019-06-26T03:58:20.659Z,36.19
2019-06-26T04:00:51.534Z,35.99
2019-06-26T04:03:22.535Z,36.27
2019-06-26T04:05:53.510Z,36.55
2019-06-26T04:08:24.676Z,36.88
2019-06-26T04:10:55.596Z,37.15
2019-06-26T04:13:27.244Z,37.08
2019-06-26T04:15:58.557Z,36.69
2019-06-26T04:18:29.476Z,35.92
2019-06-26T04:21:00.413Z,35.38
2019-06-26T04:23:31.451Z,34.97
2019-06-26T04:26:02.368Z,34.91
2019-06-26T04:28:33.339Z,35.24
2019-06-26T04:31:04.431Z,35.15
2019-06-26T04:33:35.354Z,35.61
2019-06-26T04:36:06.359Z,35.79
2019-06-26T04:38:37.298Z,36.03
2019-06-26T04:41:08.262Z,35.96
2019-06-26T04:43:39.349Z,35.55
2019-06-26T04:46:10.307Z,35.91
2019-06-26T04:48:41.198Z,36.00
2019-06-26T04:51:12.235Z,36.04
2019-06-26T04:53:43.326Z,36.00
2019-06-26T04:56:14.272Z,36.53
2019-06-26T04:58:45.278Z,36.27
2019-06-26T05:01:16.331Z,36.08
2019-06-26T05:03:47.259Z,36.20
2019-06-26T05:06:18.241Z,36.73
2019-06-26T05:08:49.252Z,36.51
2019-06-26T05:11:20.321Z,36.87
2019-06-26T05:13:51.269Z,36.68
2019-06-26T05:16:22.284Z,36.96
2019-06-26T05:18:54.209Z,36.64
2019-06-26T05:21:25.734Z,37.02
2019-06-26T05:23:56.798Z,37.79
2019-06-26T05:26:27.853Z,37.84
2019-06-26T05:28:58.809Z,37.27
2019-06-26T05:31:29.837Z,37.52
2019-06-26T05:34:00.894Z,37.90
2019-06-26T05:36:32.524Z,37.83
2019-06-26T05:39:04.626Z,38.24
2019-06-26T05:41:35.946Z,38.16
2019-06-26T05:44:06.991Z,38.27
2019-06-26T05:46:37.876Z,38.72
2019-06-26T05:49:08.846Z,38.33
2019-06-26T05:51:40.153Z,38.14
2019-06-26T05:54:11.191Z,37.63
2019-06-26T05:56:45.171Z,38.17
2019-06-26T05:59:14.873Z,38.29
2019-06-26T06:01:45.835Z,38.29
2019-06-26T06:04:16.850Z,38.24
2019-06-26T06:06:50.875Z,37.79
2019-06-26T06:09:23.010Z,38.07
2019-06-26T06:11:54.061Z,38.57
2019-06-26T06:14:25.068Z,38.60
2019-06-26T06:16:56.818Z,38.94
2019-06-26T06:19:27.944Z,38.26
2019-06-26T06:21:59.064Z,37.94
2019-06-26T06:24:30.142Z,38.31
2019-06-26T06:27:01.087Z,38.60
2019-06-26T06:29:33.068Z,38.59
2019-06-26T06:32:04.009Z,38.94
2019-06-26T06:34:36.604Z,38.54
2019-06-26T06:37:07.627Z,37.99
2019-06-26T06:39:38.562Z,38.43
2019-06-26T06:42:09.511Z,38.53
2019-06-26T06:44:40.524Z,38.85
2019-06-26T06:47:12.381Z,38.72
2019-06-26T06:49:43.430Z,38.82
2019-06-26T06:52:16.580Z,39.12
2019-06-26T06:54:47.201Z,39.03
2019-06-26T07:00:29.832Z,38.81
2019-06-26T07:03:03.726Z,38.64
2019-06-26T07:05:55.537Z,38.29
2019-06-26T07:08:26.663Z,37.73
2019-06-26T07:11:05.383Z,37.60
2019-06-26T07:13:37.920Z,37.16
2019-06-26T07:16:08.992Z,37.20
2019-06-26T07:18:40.045Z,37.06
2019-06-26T07:21:11.130Z,37.08
2019-06-26T07:23:42.094Z,36.41
2019-06-26T07:26:13.508Z,35.95
2019-06-26T07:28:44.740Z,35.96
2019-06-26T07:31:15.749Z,35.60
2019-06-26T07:33:46.763Z,35.17
2019-06-26T07:36:17.746Z,34.29
2019-06-26T07:38:48.701Z,33.59
2019-06-26T07:41:19.748Z,32.82
2019-06-26T07:43:50.738Z,31.96
2019-06-26T07:46:21.757Z,31.26
2019-06-26T07:48:52.687Z,30.54
2019-06-26T07:51:23.662Z,30.14
2019-06-26T07:53:54.687Z,29.92
2019-06-26T07:56:25.673Z,29.74
2019-06-26T07:58:56.732Z,29.89
2019-06-26T08:01:28.609Z,30.03
2019-06-26T08:03:59.591Z,30.08
2019-06-26T08:06:30.593Z,29.86
2019-06-26T08:09:01.588Z,29.54
2019-06-26T08:11:32.583Z,29.47
2019-06-26T08:14:03.602Z,29.20
2019-06-26T08:16:34.684Z,29.05
2019-06-26T08:19:05.704Z,29.02
2019-06-26T08:21:36.615Z,29.06
2019-06-26T08:24:07.624Z,29.11
2019-06-26T08:26:38.628Z,28.94
2019-06-26T08:29:10.506Z,29.06
2019-06-26T08:31:41.515Z,29.17
2019-06-26T08:34:12.503Z,29.24
2019-06-26T08:36:45.477Z,29.24
2019-06-26T08:39:16.498Z,29.32
2019-06-26T08:41:48.995Z,29.26
2019-06-26T08:44:20.027Z,28.96
2019-06-26T08:46:51.210Z,28.71
2019-06-26T08:49:26.080Z,28.72
2019-06-26T08:51:55.041Z,28.89
2019-06-26T08:54:26.037Z,29.08
2019-06-26T08:56:57.180Z,29.05
2019-06-26T08:59:33.383Z,29.08
2019-06-26T09:02:04.396Z,29.05
2019-06-26T09:04:35.443Z,29.02
2019-06-26T09:07:07.740Z,28.82
2019-06-26T09:09:38.763Z,28.86
2019-06-26T09:12:09.787Z,28.91
2019-06-26T09:14:43.695Z,28.83
2019-06-26T09:17:16.881Z,28.80
2019-06-26T09:19:47.757Z,28.87
2019-06-26T09:22:18.714Z,28.78
2019-06-26T09:24:49.604Z,28.77
2019-06-26T09:27:23.343Z,28.86
2019-06-26T09:29:57.170Z,28.67
2019-06-26T09:32:30.618Z,28.50
2019-06-26T09:35:01.623Z,28.26
2019-06-26T09:37:33.588Z,28.50
2019-06-26T09:40:05.662Z,28.82
2019-06-26T09:42:36.666Z,29.01
2019-06-26T09:45:08.881Z,29.14
2019-06-26T09:47:42.909Z,28.95
2019-06-26T09:50:27.108Z,29.14
2019-06-26T09:52:58.206Z,29.04
2019-06-26T09:55:32.178Z,29.11
2019-06-26T09:58:03.123Z,29.06
2019-06-26T10:00:34.361Z,29.06
2019-06-26T10:03:06.039Z,29.35
2019-06-26T10:05:36.900Z,29.46
2019-06-26T10:08:07.815Z,29.54
2019-06-26T10:10:38.951Z,29.36
2019-06-26T10:13:09.941Z,29.31
2019-06-26T10:15:40.927Z,29.33
2019-06-26T10:18:11.902Z,29.41
2019-06-26T10:20:45.028Z,29.15
2019-06-26T10:23:15.994Z,28.89
2019-06-26T10:25:47.131Z,28.79
2019-06-26T10:28:18.105Z,28.77
2019-06-26T10:30:49.115Z,28.71
2019-06-26T10:36:45.142Z,28.56
2019-06-26T10:39:23.377Z,28.64
2019-06-26T10:41:55.188Z,28.82
2019-06-26T10:44:30.305Z,28.81
2019-06-26T10:47:01.407Z,28.75
2019-06-26T10:49:32.483Z,28.74
2019-06-26T10:52:03.582Z,28.92
2019-06-26T10:54:34.515Z,29.12
2019-06-26T10:57:05.637Z,29.06
2019-06-26T10:59:36.582Z,29.11
2019-06-26T11:02:07.541Z,29.07
2019-06-26T11:04:38.621Z,29.10
2019-06-26T11:07:09.634Z,29.16
2019-06-26T11:09:40.690Z,29.42
2019-06-26T11:12:11.603Z,29.20
2019-06-26T11:14:42.602Z,29.15
2019-06-26T11:17:13.907Z,29.06
2019-06-26T11:19:44.920Z,29.04
2019-06-26T11:22:15.916Z,29.08
2019-06-26T11:24:47.177Z,29.00
2019-06-26T11:27:18.330Z,28.92
2019-06-26T11:30:01.522Z,29.05
2019-06-26T11:32:32.556Z,29.39
2019-06-26T11:35:06.709Z,29.79
2019-06-26T11:37:37.406Z,29.88
2019-06-26T11:40:08.840Z,29.63
2019-06-26T11:42:39.811Z,29.45
2019-06-26T11:45:11.174Z,29.35
2019-06-26T11:47:45.529Z,29.37
2019-06-26T11:50:15.989Z,29.24
2019-06-26T11:53:31.511Z,29.26
2019-06-26T11:56:06.023Z,29.33
2019-06-26T11:58:41.173Z,29.63
2019-06-26T12:01:12.193Z,29.91
2019-06-26T12:03:43.210Z,29.96
2019-06-26T12:06:30.772Z,30.10
2019-06-26T12:12:12.629Z,30.17
2019-06-26T12:15:00.162Z,30.10
2019-06-26T12:17:31.147Z,30.35
2019-06-26T12:20:20.136Z,30.51
2019-06-26T12:22:51.383Z,30.71
2019-06-26T12:25:38.953Z,30.87
2019-06-26T12:28:26.139Z,30.58
2019-06-26T12:31:18.120Z,30.53
2019-06-26T12:34:13.413Z,30.40
2019-06-26T12:37:00.930Z,30.41
2019-06-26T12:39:48.280Z,30.54
2019-06-26T12:42:19.287Z,30.55
2019-06-26T12:44:50.258Z,30.67
2019-06-26T12:47:37.773Z,30.70
2019-06-26T12:50:10.182Z,30.66
2019-06-26T12:52:59.273Z,30.60
2019-06-26T12:55:46.607Z,30.49
2019-06-26T12:58:34.027Z,30.45
2019-06-26T13:01:25.301Z,30.51
2019-06-26T13:04:12.930Z,30.51
2019-06-26T13:06:43.973Z,30.76
2019-06-26T13:09:17.404Z,30.83
2019-06-26T13:11:48.466Z,30.90
2019-06-26T13:14:19.520Z,31.01
2019-06-26T13:16:50.600Z,30.84
2019-06-26T13:19:21.748Z,30.70
2019-06-26T13:21:52.829Z,30.73
2019-06-26T13:24:23.876Z,30.85
2019-06-26T13:26:54.821Z,31.04
2019-06-26T13:29:26.986Z,31.14
2019-06-26T13:31:57.996Z,31.03
2019-06-26T13:34:29.038Z,30.81
2019-06-26T13:36:59.976Z,30.56
2019-06-26T13:39:30.962Z,30.40
2019-06-26T13:42:01.984Z,30.32
2019-06-26T13:44:32.868Z,30.09
2019-06-26T13:47:03.726Z,29.95
2019-06-26T13:49:34.768Z,29.87
2019-06-26T13:52:05.729Z,29.76
2019-06-26T13:54:36.723Z,29.69
2019-06-26T13:57:07.688Z,29.66
2019-06-26T13:59:39.916Z,29.63
2019-06-26T14:02:10.952Z,29.54
2019-06-26T14:04:42.223Z,29.44
2019-06-26T14:07:15.468Z,29.39
2019-06-26T14:09:46.547Z,29.35
2019-06-26T14:12:19.237Z,29.32
2019-06-26T14:14:57.437Z,29.30
2019-06-26T14:17:23.431Z,29.24
2019-06-26T14:19:54.460Z,29.18
2019-06-26T14:22:25.485Z,29.14
2019-06-26T14:24:56.381Z,29.07
2019-06-26T14:27:27.255Z,29.07
2019-06-26T14:29:58.203Z,29.07
2019-06-26T14:32:29.334Z,29.12
2019-06-26T14:35:00.377Z,29.10
2019-06-26T14:37:31.431Z,29.02
2019-06-26T14:40:02.581Z,28.97
2019-06-26T14:42:33.660Z,28.92
2019-06-26T14:45:07.164Z,28.81
2019-06-26T14:47:38.264Z,28.78
2019-06-26T14:50:10.059Z,28.75
2019-06-26T14:52:41.289Z,28.74
2019-06-26T14:55:12.559Z,28.76
2019-06-26T14:57:43.652Z,28.80
2019-06-26T15:00:16.748Z,28.80
2019-06-26T15:02:50.481Z,28.77
2019-06-26T15:05:21.724Z,28.77
2019-06-26T15:07:56.439Z,28.80
2019-06-26T15:10:27.544Z,28.79
2019-06-26T15:12:58.679Z,28.77
2019-06-26T15:15:30.591Z,28.79
2019-06-26T15:18:04.742Z,28.80
2019-06-26T15:20:41.115Z,28.75
2019-06-26T15:23:12.109Z,28.71
2019-06-26T15:25:43.278Z,28.69
2019-06-26T15:28:14.266Z,28.67
2019-06-26T15:30:45.399Z,28.65
2019-06-26T15:33:16.557Z,28.62
2019-06-26T15:35:47.573Z,28.62
2019-06-26T15:38:19.608Z,28.58
2019-06-26T15:40:50.632Z,28.57
2019-06-26T15:43:21.604Z,28.56
2019-06-26T15:45:52.634Z,28.56
2019-06-26T15:48:23.660Z,28.60
2019-06-26T15:50:56.670Z,28.62
2019-06-26T15:53:27.833Z,28.63
2019-06-26T15:55:58.915Z,28.61
2019-06-26T15:58:29.872Z,28.63
2019-06-26T16:01:00.991Z,28.57
2019-06-26T16:03:31.891Z,28.55
2019-06-26T16:06:02.919Z,28.53
2019-06-26T16:08:33.836Z,28.51
2019-06-26T16:11:04.734Z,28.46
2019-06-26T16:13:35.771Z,28.39
2019-06-26T16:16:06.847Z,28.34
2019-06-26T16:18:43.250Z,28.33
2019-06-26T16:21:14.296Z,28.27
2019-06-26T16:23:45.259Z,28.23
2019-06-26T16:26:16.324Z,28.18
2019-06-26T16:28:47.297Z,28.16
2019-06-26T16:31:18.363Z,28.07
2019-06-26T16:33:49.361Z,28.02
2019-06-26T16:36:20.299Z,28.00
2019-06-26T16:38:51.260Z,28.03
2019-06-26T16:41:22.234Z,28.02
2019-06-26T16:43:53.285Z,28.00
2019-06-26T16:46:24.201Z,27.94
2019-06-26T16:48:55.172Z,27.89
2019-06-26T16:51:26.187Z,27.81
2019-06-26T16:53:57.292Z,27.70
2019-06-26T16:56:28.393Z,27.52
2019-06-26T16:58:59.302Z,27.34
2019-06-26T17:01:30.264Z,27.19
2019-06-26T17:04:01.267Z,27.13
2019-06-26T17:06:33.407Z,27.10
2019-06-26T17:09:05.923Z,27.05
2019-06-26T17:11:36.979Z,27.01
2019-06-26T17:14:08.016Z,26.97
2019-06-26T17:16:38.960Z,26.91
2019-06-26T17:19:09.938Z,26.87
2019-06-26T17:21:40.923Z,26.84
2019-06-26T17:24:11.958Z,26.79
2019-06-26T17:26:42.916Z,26.71
2019-06-26T17:29:13.945Z,26.62
2019-06-26T17:31:44.895Z,26.54
2019-06-26T17:34:16.031Z,26.47
2019-06-26T17:36:47.082Z,26.40
2019-06-26T17:39:18.167Z,26.31
2019-06-26T17:41:49.058Z,26.22
2019-06-26T17:44:20.114Z,26.13
2019-06-26T17:46:51.093Z,26.05
2019-06-26T17:49:22.171Z,25.98
2019-06-26T17:51:53.089Z,25.90
2019-06-26T17:54:24.010Z,25.82
2019-06-26T17:56:54.991Z,25.78
2019-06-26T17:59:25.962Z,25.71
2019-06-26T18:01:56.941Z,25.70
2019-06-26T18:04:27.957Z,25.66
2019-06-26T18:06:58.961Z,25.62
2019-06-26T18:09:29.959Z,25.52
2019-06-26T18:12:01.081Z,25.44
2019-06-26T18:14:32.107Z,25.36
2019-06-26T18:17:03.128Z,25.31
2019-06-26T18:19:34.154Z,25.26
2019-06-26T18:22:05.191Z,25.25
2019-06-26T18:24:36.207Z,25.18
2019-06-26T18:27:07.255Z,25.10
2019-06-26T18:29:38.244Z,25.11
2019-06-26T18:32:09.374Z,25.08
2019-06-26T18:34:40.569Z,25.06
2019-06-26T18:37:11.683Z,24.99
2019-06-26T18:39:43.035Z,24.95
2019-06-26T18:42:16.056Z,24.86
2019-06-26T18:44:47.998Z,24.79
2019-06-26T18:47:18.999Z,24.70
2019-06-26T18:49:50.407Z,24.58
2019-06-26T18:52:21.519Z,24.49
2019-06-26T18:54:52.685Z,24.37
2019-06-26T18:57:23.787Z,24.30
2019-06-26T18:59:54.813Z,24.25
2019-06-26T19:02:25.903Z,24.21
2019-06-26T19:04:57.001Z,24.22
2019-06-26T19:07:28.068Z,24.19
2019-06-26T19:09:59.296Z,24.14
2019-06-26T19:12:30.289Z,24.07
2019-06-26T19:15:06.057Z,23.96
2019-06-26T19:17:37.091Z,23.92
2019-06-26T19:20:09.029Z,23.90
2019-06-26T19:22:40.027Z,23.82
2019-06-26T19:25:12.301Z,23.76
2019-06-26T19:27:43.381Z,23.67
2019-06-26T19:30:14.942Z,23.59
2019-06-26T19:32:46.140Z,23.50
2019-06-26T19:35:19.639Z,23.38
2019-06-26T19:37:50.149Z,23.32
2019-06-26T19:40:24.099Z,23.24
2019-06-26T19:42:55.687Z,23.09
2019-06-26T19:45:27.794Z,22.96
2019-06-26T19:47:58.947Z,22.83
2019-06-26T19:50:30.010Z,22.62
2019-06-26T19:53:01.182Z,22.44
2019-06-26T19:55:32.483Z,22.28
2019-06-26T19:58:03.662Z,22.11
2019-06-26T20:00:34.885Z,21.97
2019-06-26T20:03:06.237Z,21.84
2019-06-26T20:05:37.452Z,21.74
2019-06-26T20:08:08.666Z,21.68
2019-06-26T20:10:39.839Z,21.61
2019-06-26T20:13:11.082Z,21.58
2019-06-26T20:15:42.188Z,21.54
2019-06-26T20:18:13.275Z,21.49
2019-06-26T20:20:44.339Z,21.39
2019-06-26T20:23:15.401Z,21.34
2019-06-26T20:25:49.454Z,21.39
2019-06-26T20:28:20.742Z,21.36
2019-06-26T20:30:51.881Z,21.34
2019-06-26T20:33:23.198Z,21.27
2019-06-26T20:35:55.882Z,21.21
2019-06-26T20:38:27.092Z,21.16
2019-06-26T20:40:58.198Z,21.13
2019-06-26T20:43:29.181Z,21.14
2019-06-26T20:46:00.323Z,21.11
2019-06-26T20:48:31.486Z,21.04
2019-06-26T20:51:02.749Z,20.95
2019-06-26T20:53:34.648Z,20.86
2019-06-26T20:56:05.830Z,20.78
2019-06-26T20:58:36.955Z,20.70
2019-06-26T21:01:09.202Z,20.71
2019-06-26T21:03:40.278Z,20.75
2019-06-26T21:06:11.267Z,20.71
2019-06-26T21:08:42.401Z,20.62
2019-06-26T21:11:15.780Z,20.53
2019-06-26T21:13:46.392Z,20.47
2019-06-26T21:16:17.552Z,20.38
2019-06-26T21:18:48.734Z,20.33
2019-06-26T21:21:20.222Z,20.29
2019-06-26T21:23:51.519Z,20.26
2019-06-26T21:26:22.582Z,20.28
2019-06-26T21:28:53.695Z,20.30
2019-06-26T21:31:24.918Z,20.28
2019-06-26T21:33:56.002Z,20.25
2019-06-26T21:36:27.036Z,20.23
2019-06-26T21:38:58.170Z,20.19
2019-06-26T21:41:29.314Z,20.12
2019-06-26T21:44:00.415Z,20.03
2019-06-26T21:46:31.542Z,19.96
2019-06-26T21:49:04.227Z,19.87
2019-06-26T21:51:35.391Z,19.83
2019-06-26T21:54:06.597Z,19.86
2019-06-26T21:56:37.737Z,19.89
2019-06-26T21:59:08.837Z,19.88
2019-06-26T22:01:39.955Z,19.85
2019-06-26T22:04:11.092Z,19.84
2019-06-26T22:06:42.290Z,19.89
2019-06-26T22:09:13.383Z,19.90
2019-06-26T22:11:45.609Z,19.90
2019-06-26T22:14:16.794Z,19.89
2019-06-26T22:16:47.877Z,19.88
2019-06-26T22:19:18.998Z,19.83
2019-06-26T22:21:50.089Z,19.71
2019-06-26T22:24:21.177Z,19.66
2019-06-26T22:26:52.353Z,19.64
2019-06-26T22:29:23.570Z,19.60
2019-06-26T22:31:54.743Z,19.57
2019-06-26T22:34:26.168Z,19.54
2019-06-26T22:36:57.235Z,19.54
2019-06-26T22:39:28.299Z,19.53
2019-06-26T22:42:01.707Z,19.53
2019-06-26T22:44:32.847Z,19.52
2019-06-26T22:47:04.007Z,19.52
2019-06-26T22:49:35.358Z,19.47
2019-06-26T22:52:06.355Z,19.40
2019-06-26T22:54:37.475Z,19.35
2019-06-26T22:57:08.612Z,19.32
2019-06-26T22:59:39.552Z,19.29
2019-06-26T23:02:10.587Z,19.25
2019-06-26T23:04:41.626Z,19.22
2019-06-26T23:07:12.670Z,19.17
2019-06-26T23:09:43.664Z,19.16
2019-06-26T23:12:14.712Z,19.13
2019-06-26T23:14:45.623Z,19.11
2019-06-26T23:17:16.613Z,19.06
2019-06-26T23:19:47.820Z,19.08
2019-06-26T23:22:18.882Z,19.09
2019-06-26T23:24:50.068Z,19.15
2019-06-26T23:27:21.299Z,19.15
2019-06-26T23:29:52.389Z,19.18
2019-06-26T23:32:23.533Z,19.16
2019-06-26T23:34:54.519Z,19.11
2019-06-26T23:37:25.587Z,19.06
2019-06-26T23:39:56.524Z,19.03
2019-06-26T23:42:27.499Z,18.95
2019-06-26T23:44:58.471Z,18.91
2019-06-26T23:47:29.467Z,18.89
2019-06-26T23:50:00.509Z,18.83
2019-06-26T23:52:31.512Z,18.82
2019-06-26T23:55:02.533Z,18.79
2019-06-26T23:57:33.521Z,18.70
